Time;durP1;ratioP1;P1;durP2;ratioP2;P2;SDS_P1;SDS_P2;PMS_P1;PMS_P2;Temp;Humidity;BMP_temperature;BMP_pressure;BME280_temperature;BME280_humidity;BME280_pressure;Samples;Min_cycle;Max_cycle;Signal;HPM_P1;HPM_P2
2021/09/18 00:03:21;;;;;;;2.77;0.90;;;19.10;73.40;;;;;;10516951;28;20191;-63
2021/09/18 00:08:43;;;;;;;1.13;0.60;;;19.10;73.30;;;;;;10518276;28;20250;-63
2021/09/18 00:14:06;;;;;;;0.83;0.63;;;19.10;73.30;;;;;;10495131;28;20216;-62
2021/09/18 00:19:29;;;;;;;1.57;0.70;;;19.20;73.40;;;;;;10496251;28;20600;-64
2021/09/18 00:24:51;;;;;;;1.00;0.70;;;19.10;73.30;;;;;;10496008;28;20417;-64
2021/09/18 00:30:14;;;;;;;1.70;0.50;;;19.40;72.30;;;;;;10510910;28;20322;-63
2021/09/18 00:35:37;;;;;;;1.10;0.60;;;19.30;72.70;;;;;;10504984;28;20232;-63
2021/09/18 00:40:59;;;;;;;0.63;0.50;;;19.20;73.20;;;;;;10502064;28;20719;-63
2021/09/18 00:46:22;;;;;;;0.90;0.63;;;19.20;73.30;;;;;;10531707;28;20700;-62
2021/09/18 00:51:45;;;;;;;0.93;0.60;;;19.10;73.30;;;;;;10495842;28;20243;-62
2021/09/18 00:57:08;;;;;;;1.13;0.70;;;19.10;73.30;;;;;;10521193;28;20212;-63
2021/09/18 01:02:30;;;;;;;0.90;0.50;;;19.10;73.30;;;;;;10529484;28;20581;-62
2021/09/18 01:07:56;;;;;;;1.03;0.50;;;19.10;73.30;;;;;;10492972;28;20208;-63
2021/09/18 01:13:20;;;;;;;0.60;0.53;;;19.10;73.20;;;;;;10495205;28;20200;-62
2021/09/18 01:18:42;;;;;;;0.60;0.50;;;19.00;73.10;;;;;;10496867;28;20212;-63
2021/09/18 01:24:06;;;;;;;1.27;0.70;;;19.10;73.10;;;;;;10495667;28;20191;-64
2021/09/18 01:29:28;;;;;;;1.07;0.50;;;19.00;73.10;;;;;;10513591;28;20213;-62
2021/09/18 01:34:50;;;;;;;0.67;0.47;;;19.10;72.90;;;;;;10503702;28;20192;-63
2021/09/18 01:40:15;;;;;;;1.20;0.60;;;19.10;73.20;;;;;;10538070;28;20289;-62
2021/09/18 01:45:37;;;;;;;0.70;0.40;;;19.10;73.30;;;;;;10503701;28;20189;-63
2021/09/18 01:51:01;;;;;;;1.67;0.70;;;19.00;73.30;;;;;;10499708;28;20208;-63
2021/09/18 01:56:25;;;;;;;1.27;0.50;;;19.10;73.10;;;;;;10515873;28;20219;-64
2021/09/18 02:01:47;;;;;;;1.33;0.57;;;19.10;73.20;;;;;;10525666;28;20227;-63
2021/09/18 02:07:10;;;;;;;0.73;0.50;;;19.00;73.40;;;;;;10508538;28;20193;-63
2021/09/18 02:12:34;;;;;;;0.60;0.50;;;19.00;73.30;;;;;;10514999;28;20274;-62
2021/09/18 02:17:57;;;;;;;0.60;0.40;;;19.00;73.40;;;;;;10538427;28;20231;-60
2021/09/18 02:23:19;;;;;;;0.60;0.20;;;19.00;73.40;;;;;;10538283;28;20218;-62
2021/09/18 02:28:42;;;;;;;0.60;0.47;;;19.00;73.40;;;;;;10521884;28;20635;-62
2021/09/18 02:34:04;;;;;;;1.13;0.40;;;19.00;73.40;;;;;;10501444;28;20700;-64
2021/09/18 02:39:27;;;;;;;0.40;0.30;;;19.00;73.30;;;;;;10523870;28;20228;-64
2021/09/18 02:44:50;;;;;;;0.93;0.50;;;19.00;73.30;;;;;;10499560;28;20201;-64
2021/09/18 02:50:15;;;;;;;0.53;0.53;;;19.00;73.30;;;;;;10498240;28;20227;-62
2021/09/18 02:55:37;;;;;;;0.70;0.40;;;19.00;73.30;;;;;;10498900;28;20201;-62
2021/09/18 03:01:00;;;;;;;0.80;0.50;;;19.00;73.20;;;;;;10512485;28;20224;-62
2021/09/18 03:06:22;;;;;;;0.57;0.30;;;19.00;73.20;;;;;;10497857;28;20242;-64
2021/09/18 03:11:44;;;;;;;0.57;0.40;;;19.00;73.10;;;;;;10498420;28;20236;-64
2021/09/18 03:17:08;;;;;;;1.27;0.43;;;19.00;73.10;;;;;;10514325;28;20215;-63
2021/09/18 03:22:30;;;;;;;0.80;0.50;;;19.00;73.10;;;;;;10508668;28;20195;-63
2021/09/18 03:27:52;;;;;;;0.80;0.50;;;19.00;73.10;;;;;;10526886;28;20220;-62
2021/09/18 03:33:16;;;;;;;0.50;0.40;;;19.00;73.10;;;;;;10497185;28;20276;-64
2021/09/18 03:38:38;;;;;;;0.80;0.50;;;19.00;73.10;;;;;;10529648;28;20726;-65
2021/09/18 03:44:00;;;;;;;0.67;0.40;;;19.00;73.10;;;;;;10536369;28;20203;-60
2021/09/18 03:49:24;;;;;;;0.60;0.40;;;19.00;73.10;;;;;;10535342;28;20208;-62
2021/09/18 03:54:46;;;;;;;0.87;0.50;;;19.00;73.50;;;;;;10511241;28;20200;-62
2021/09/18 04:00:09;;;;;;;0.50;0.40;;;19.00;73.50;;;;;;10506808;28;20215;-63
2021/09/18 04:05:32;;;;;;;0.90;0.53;;;19.00;73.40;;;;;;10508969;28;20426;-62
2021/09/18 04:10:55;;;;;;;0.70;0.53;;;19.20;72.60;;;;;;10515404;28;20212;-62
2021/09/18 04:16:17;;;;;;;1.13;0.50;;;19.10;72.90;;;;;;10498081;28;20226;-62
2021/09/18 04:21:40;;;;;;;0.50;0.43;;;19.00;73.30;;;;;;10493736;28;20222;-64
2021/09/18 04:27:03;;;;;;;1.00;0.60;;;19.00;73.30;;;;;;10497792;28;20589;-61
2021/09/18 04:32:25;;;;;;;0.80;0.50;;;19.00;73.30;;;;;;10505731;28;20204;-62
2021/09/18 04:37:48;;;;;;;1.30;0.60;;;18.90;73.30;;;;;;10498657;28;20216;-62
2021/09/18 04:43:10;;;;;;;0.97;0.50;;;18.90;73.30;;;;;;10498630;23;20231;-61
2021/09/18 04:48:33;;;;;;;1.07;0.40;;;18.90;73.30;;;;;;10449645;28;20193;-67
2021/09/18 04:53:56;;;;;;;0.93;0.50;;;18.90;73.30;;;;;;10400839;28;20201;-63
2021/09/18 04:59:18;;;;;;;0.57;0.40;;;19.00;73.40;;;;;;10403117;28;20221;-62
2021/09/18 05:04:41;;;;;;;0.97;0.50;;;18.90;73.40;;;;;;10407546;28;20538;-62
2021/09/18 05:10:05;;;;;;;1.47;0.60;;;18.90;73.40;;;;;;10405212;28;20216;-63
2021/09/18 05:15:27;;;;;;;0.80;0.73;;;18.90;73.40;;;;;;10413795;28;20204;-62
2021/09/18 05:20:49;;;;;;;0.83;0.77;;;18.90;73.40;;;;;;10414951;28;20719;-63
2021/09/18 05:26:13;;;;;;;0.80;0.80;;;18.90;73.40;;;;;;10414794;28;20196;-63
2021/09/18 05:31:35;;;;;;;0.93;0.83;;;18.90;73.50;;;;;;10414681;28;20684;-64
2021/09/18 05:36:57;;;;;;;0.80;0.80;;;18.90;73.50;;;;;;10414218;28;20210;-64
2021/09/18 05:42:21;;;;;;;0.90;0.67;;;18.90;73.60;;;;;;10413573;28;20221;-61
2021/09/18 05:47:43;;;;;;;0.97;0.90;;;18.90;73.70;;;;;;10409450;28;20190;-62
2021/09/18 05:53:05;;;;;;;1.60;1.00;;;18.90;73.70;;;;;;10413987;28;20233;-63
2021/09/18 05:58:28;;;;;;;1.20;0.90;;;18.90;73.80;;;;;;10408035;28;20229;-64
2021/09/18 06:03:50;;;;;;;1.40;1.00;;;18.90;73.80;;;;;;10414269;28;20592;-64
2021/09/18 06:09:13;;;;;;;1.73;1.37;;;18.90;73.90;;;;;;10413658;28;20205;-60
2021/09/18 06:14:36;;;;;;;2.10;1.53;;;18.90;74.10;;;;;;10414764;28;20207;-61
2021/09/18 06:19:58;;;;;;;1.87;1.50;;;18.90;74.30;;;;;;10413861;28;20217;-62
2021/09/18 06:25:20;;;;;;;1.87;1.60;;;18.90;74.30;;;;;;10413622;28;20572;-62
2021/09/18 06:30:44;;;;;;;1.57;1.33;;;18.90;74.10;;;;;;10410375;28;20221;-59
2021/09/18 06:36:06;;;;;;;1.50;1.40;;;18.90;74.30;;;;;;10406727;28;20656;-60
2021/09/18 06:41:28;;;;;;;1.93;1.40;;;18.90;74.10;;;;;;10411679;28;20237;-60
2021/09/18 06:46:52;;;;;;;1.30;1.13;;;18.90;74.00;;;;;;10412125;28;20201;-63
2021/09/18 06:52:14;;;;;;;1.50;1.40;;;18.90;74.00;;;;;;10412948;28;20754;-64
2021/09/18 06:57:38;;;;;;;1.70;1.47;;;18.90;74.00;;;;;;10413649;28;20233;-65
2021/09/18 07:03:02;;;;;;;1.93;1.40;;;18.90;74.00;;;;;;10454078;28;20223;-62
2021/09/18 07:08:24;;;;;;;1.43;1.33;;;18.90;74.10;;;;;;10441441;28;20393;-63
2021/09/18 07:13:46;;;;;;;1.83;1.40;;;18.90;74.20;;;;;;10403816;28;20205;-61
2021/09/18 07:19:09;;;;;;;1.70;1.60;;;18.80;74.20;;;;;;10411949;28;20221;-61
2021/09/18 07:24:34;;;;;;;1.93;1.63;;;18.90;74.30;;;;;;10413105;28;20198;-63
2021/09/18 07:29:57;;;;;;;35.97;4.87;;;18.90;74.30;;;;;;10410920;28;20206;-64
2021/09/18 07:35:21;;;;;;;20.38;3.92;;;18.90;75.10;;;;;;10408310;28;20432;-64
2021/09/18 07:40:43;;;;;;;9.60;3.50;;;19.40;73.10;;;;;;10410415;28;20218;-63
2021/09/18 07:46:05;;;;;;;7.53;3.03;;;19.20;74.30;;;;;;10409882;28;20228;-61
2021/09/18 07:51:29;;;;;;;10.07;4.43;;;19.00;74.70;;;;;;10407415;28;20214;-63
2021/09/18 07:56:51;;;;;;;5.50;4.20;;;18.90;75.10;;;;;;10410298;28;20201;-65
2021/09/18 08:02:13;;;;;;;5.63;4.07;;;18.80;75.30;;;;;;10409540;28;20835;-64
2021/09/18 08:07:38;;;;;;;4.43;4.03;;;18.80;75.40;;;;;;10409596;28;20197;-62
2021/09/18 08:13:00;;;;;;;6.70;4.17;;;18.80;75.60;;;;;;10409653;28;20222;-63
2021/09/18 08:18:23;;;;;;;7.97;3.90;;;18.80;75.50;;;;;;10407959;28;20233;-63
2021/09/18 08:23:46;;;;;;;4.50;3.20;;;18.80;75.90;;;;;;10408092;28;20210;-63
2021/09/18 08:29:08;;;;;;;9.63;3.90;;;18.90;76.10;;;;;;10401998;28;20214;-63
2021/09/18 08:34:30;;;;;;;10.50;4.43;;;18.80;76.10;;;;;;10406093;28;20426;-66
2021/09/18 08:39:54;;;;;;;6.93;3.40;;;19.40;74.50;;;;;;10403485;28;20574;-65
2021/09/18 08:45:16;;;;;;;5.40;3.50;;;19.40;73.00;;;;;;10404827;28;20212;-65
2021/09/18 08:50:38;;;;;;;3.47;2.47;;;19.30;72.40;;;;;;10405612;28;20558;-66
2021/09/18 08:56:02;;;;;;;3.73;2.63;;;19.40;72.40;;;;;;10407365;28;20276;-64
2021/09/18 09:01:26;;;;;;;4.37;2.43;;;19.40;73.50;;;;;;10407635;28;20217;-62
2021/09/18 09:06:50;;;;;;;4.70;2.30;;;19.30;73.40;;;;;;10403904;28;20198;-63
2021/09/18 09:12:24;;;;;;;8.20;3.07;;;19.30;73.00;;;;;;10400712;28;20249;-63
2021/09/18 09:17:51;;;;;;;4.30;2.50;;;19.30;71.90;;;;;;10398979;28;20224;-63
2021/09/18 09:23:15;;;;;;;7.90;3.03;;;19.30;72.90;;;;;;10405241;28;20436;-62
2021/09/18 09:28:40;;;;;;;4.47;2.40;;;19.70;71.90;;;;;;10406691;28;20661;-61
2021/09/18 09:34:11;;;;;;;7.43;3.15;;;19.60;72.20;;;;;;10403842;28;20783;-64
2021/09/18 09:39:33;;;;;;;4.87;2.67;;;19.70;71.10;;;;;;10406205;28;20620;-66
2021/09/18 09:45:10;;;;;;;3.30;2.20;;;19.50;71.90;;;;;;10406668;28;20198;-67
2021/09/18 09:50:33;;;;;;;5.13;2.30;;;19.30;72.60;;;;;;10365360;28;20688;-67
2021/09/18 09:55:55;;;;;;;4.73;2.53;;;19.20;73.30;;;;;;10406041;28;20213;-65
2021/09/18 10:01:19;;;;;;;3.90;2.27;;;19.20;73.70;;;;;;10411574;28;20217;-66
2021/09/18 10:06:41;;;;;;;2.83;1.80;;;19.10;74.00;;;;;;10413657;28;20197;-67
2021/09/18 10:12:04;;;;;;;2.37;2.10;;;19.10;74.20;;;;;;10413276;28;20616;-68
2021/09/18 10:17:28;;;;;;;3.83;1.83;;;19.10;74.40;;;;;;10411460;28;20194;-68
2021/09/18 10:28:45;;;;;;;4.80;1.90;;;19.00;74.60;;;;;;10364307;28;20196;-68
2021/09/18 10:34:23;;;;;;;2.07;1.87;;;19.00;74.80;;;;;;10410524;28;20194;-68
2021/09/18 10:40:01;;;;;;;3.40;1.70;;;19.00;74.70;;;;;;10413158;28;20232;-68
2021/09/18 10:45:41;;;;;;;1.63;1.50;;;18.90;74.80;;;;;;10501401;23;20234;-68
2021/09/18 10:51:05;;;;;;;1.40;1.30;;;18.90;74.90;;;;;;10457044;28;20220;-68
2021/09/18 10:57:11;;;;;;;1.97;1.60;;;18.90;75.10;;;;;;10489297;28;20189;-67
2021/09/18 11:02:44;;;;;;;1.83;1.33;;;18.90;75.10;;;;;;10495493;28;20216;-68
2021/09/18 11:08:23;;;;;;;1.90;1.60;;;18.90;75.30;;;;;;10496605;28;20204;-67
2021/09/18 11:13:45;;;;;;;1.50;1.37;;;18.90;75.30;;;;;;10494830;28;20685;-68
2021/09/18 11:19:11;;;;;;;1.30;1.20;;;18.90;75.50;;;;;;10495570;28;20216;-67
2021/09/18 11:24:34;;;;;;;1.60;1.50;;;18.90;75.50;;;;;;10510897;28;20212;-68
2021/09/18 11:29:56;;;;;;;1.30;1.20;;;18.90;75.60;;;;;;10490250;28;20680;-69
2021/09/18 11:35:20;;;;;;;1.27;1.17;;;18.90;75.70;;;;;;10494941;28;20208;-69
2021/09/18 11:40:42;;;;;;;1.60;1.20;;;18.80;75.70;;;;;;10485830;28;20224;-69
2021/09/18 11:46:04;;;;;;;1.10;1.00;;;18.80;75.80;;;;;;10491213;28;20205;-67
2021/09/18 11:51:28;;;;;;;1.10;1.00;;;18.80;75.90;;;;;;10490144;28;20280;-71
2021/09/18 11:56:51;;;;;;;0.60;0.60;;;18.80;75.80;;;;;;10494774;28;20193;-68
2021/09/18 12:02:13;;;;;;;0.60;0.60;;;18.80;75.80;;;;;;10518620;28;20737;-69
2021/09/18 12:07:37;;;;;;;0.80;0.70;;;18.70;75.90;;;;;;10538768;28;20203;-72
2021/09/18 12:13:01;;;;;;;1.57;0.63;;;18.80;76.00;;;;;;10454446;28;20208;-68
2021/09/18 12:18:26;;;;;;;0.50;0.50;;;18.80;76.10;;;;;;10452691;28;20216;-68
2021/09/18 12:23:54;;;;;;;0.70;0.50;;;18.70;76.10;;;;;;10485232;28;20680;-67
2021/09/18 12:29:18;;;;;;;0.70;0.60;;;18.80;76.20;;;;;;10489764;28;20244;-68
2021/09/18 12:34:40;;;;;;;1.93;0.80;;;18.80;76.20;;;;;;10468677;28;20224;-69
2021/09/18 12:40:20;;;;;;;1.53;0.97;;;18.80;76.30;;;;;;10452616;28;20212;-69
2021/09/18 12:45:43;;;;;;;2.13;1.00;;;18.70;76.20;;;;;;10480641;28;20222;-70
2021/09/18 12:51:08;;;;;;;1.17;1.00;;;18.80;76.50;;;;;;10492525;28;20215;-67
2021/09/18 12:56:36;;;;;;;0.97;0.80;;;18.70;76.40;;;;;;10453370;28;20581;-68
2021/09/18 13:02:00;;;;;;;1.67;0.90;;;18.80;76.60;;;;;;10451294;28;20217;-68
2021/09/18 13:07:25;;;;;;;1.43;0.80;;;18.80;76.50;;;;;;10452369;28;20208;-68
2021/09/18 13:12:48;;;;;;;1.17;0.70;;;18.80;76.60;;;;;;10495951;28;20677;-69
2021/09/18 13:18:21;;;;;;;0.73;0.60;;;18.80;76.60;;;;;;10486511;28;20215;-68
2021/09/18 13:23:43;;;;;;;0.90;0.60;;;18.80;76.60;;;;;;10490939;28;20585;-68
2021/09/18 13:29:07;;;;;;;0.90;0.50;;;18.70;76.60;;;;;;10522172;28;20187;-71
2021/09/18 13:34:29;;;;;;;0.50;0.50;;;18.80;76.70;;;;;;10507596;28;20239;-68
2021/09/18 13:39:52;;;;;;;2.23;0.50;;;18.70;76.70;;;;;;10499026;28;20216;-69
2021/09/18 13:45:15;;;;;;;0.90;0.50;;;18.70;76.70;;;;;;10499444;28;20231;-68
2021/09/18 13:50:38;;;;;;;1.10;0.70;;;18.70;76.80;;;;;;10498493;28;20673;-68
2021/09/18 13:56:00;;;;;;;0.97;0.57;;;18.70;76.80;;;;;;10499602;28;20279;-70
2021/09/18 14:01:23;;;;;;;1.17;0.60;;;18.80;76.90;;;;;;10498360;28;20216;-68
2021/09/18 14:06:45;;;;;;;0.70;0.60;;;18.80;77.00;;;;;;10497655;28;20203;-68
2021/09/18 14:12:07;;;;;;;0.87;0.50;;;18.70;77.00;;;;;;10495738;28;20220;-68
2021/09/18 14:17:31;;;;;;;0.77;0.60;;;18.70;77.50;;;;;;10497080;28;20545;-68
2021/09/18 14:22:53;;;;;;;1.07;0.60;;;18.70;77.20;;;;;;10494828;28;20217;-67
2021/09/18 14:28:15;;;;;;;1.27;0.60;;;18.70;77.20;;;;;;10533619;28;20198;-68
2021/09/18 14:33:39;;;;;;;0.50;0.40;;;18.70;77.30;;;;;;10538744;28;20219;-69
2021/09/18 14:39:03;;;;;;;0.80;0.40;;;18.70;77.30;;;;;;10539434;28;20676;-68
2021/09/18 14:44:25;;;;;;;0.93;0.47;;;18.70;77.30;;;;;;10500919;28;20232;-68
2021/09/18 14:49:49;;;;;;;0.37;0.23;;;18.70;77.30;;;;;;10497760;28;20200;-68
2021/09/18 14:55:13;;;;;;;0.93;0.33;;;18.70;77.40;;;;;;10496443;28;20716;-67
2021/09/18 15:00:35;;;;;;;0.20;0.20;;;18.70;77.40;;;;;;10496615;28;20217;-68
2021/09/18 15:05:58;;;;;;;0.90;0.27;;;18.70;77.40;;;;;;10479111;28;20199;-67
2021/09/18 15:11:21;;;;;;;3.23;0.50;;;18.70;77.50;;;;;;10454455;28;20567;-69
2021/09/18 15:16:43;;;;;;;0.30;0.20;;;18.70;77.50;;;;;;10481806;28;20197;-68
2021/09/18 15:22:07;;;;;;;0.40;0.20;;;18.70;77.60;;;;;;10478573;28;20281;-70
2021/09/18 15:27:29;;;;;;;1.00;0.30;;;18.70;77.60;;;;;;10492341;28;20197;-68
2021/09/18 15:32:51;;;;;;;0.57;0.40;;;18.70;77.60;;;;;;10494536;28;20208;-68
2021/09/18 15:38:15;;;;;;;0.30;0.30;;;18.70;77.70;;;;;;10496183;28;20192;-68
2021/09/18 15:43:38;;;;;;;0.93;0.30;;;18.70;77.80;;;;;;10453710;28;20224;-69
2021/09/18 15:49:01;;;;;;;0.33;0.23;;;18.70;77.90;;;;;;10484856;28;20193;-69
2021/09/18 15:54:24;;;;;;;0.30;0.30;;;18.70;78.40;;;;;;10492831;28;20212;-69
2021/09/18 15:59:46;;;;;;;0.37;0.30;;;18.70;77.90;;;;;;10488157;28;20219;-67
2021/09/18 16:05:09;;;;;;;0.40;0.40;;;18.70;77.90;;;;;;10493253;28;20217;-68
2021/09/18 16:10:33;;;;;;;1.00;0.60;;;18.70;77.80;;;;;;10463238;28;20201;-68
2021/09/18 16:15:55;;;;;;;2.30;0.60;;;18.70;77.70;;;;;;10473873;28;20224;-68
2021/09/18 16:21:17;;;;;;;1.57;0.60;;;18.70;77.70;;;;;;10493386;28;20228;-68
2021/09/18 16:26:40;;;;;;;5.90;1.00;;;18.70;77.60;;;;;;10492830;28;20419;-68
2021/09/18 16:32:04;;;;;;;1.63;0.73;;;19.00;76.60;;;;;;10492857;28;20419;-68
2021/09/18 16:37:26;;;;;;;1.83;0.70;;;18.90;76.80;;;;;;10485312;28;20200;-68
2021/09/18 16:42:49;;;;;;;2.67;0.90;;;18.80;77.20;;;;;;10491851;28;20228;-67
2021/09/18 16:48:12;;;;;;;2.97;1.37;;;18.80;77.40;;;;;;10458921;23;20233;-70
2021/09/18 16:53:34;;;;;;;5.53;2.10;;;18.70;77.50;;;;;;10428093;28;20616;-70
2021/09/18 16:58:57;;;;;;;2.40;1.20;;;18.70;77.60;;;;;;10432214;28;20213;-69
2021/09/18 17:04:19;;;;;;;5.00;1.20;;;18.70;77.70;;;;;;10431275;28;20634;-69
2021/09/18 17:09:43;;;;;;;4.60;1.40;;;18.70;77.70;;;;;;10447344;28;20209;-68
2021/09/18 17:15:08;;;;;;;2.40;1.07;;;18.70;77.70;;;;;;10444362;28;20201;-69
2021/09/18 17:20:31;;;;;;;1.67;1.10;;;18.70;77.80;;;;;;10447754;28;20247;-69
2021/09/18 17:25:53;;;;;;;0.90;0.70;;;18.60;77.70;;;;;;10448358;28;20201;-68
2021/09/18 17:31:17;;;;;;;2.33;1.10;;;18.70;77.70;;;;;;10437904;28;20431;-69
2021/09/18 17:36:39;;;;;;;2.60;1.07;;;19.20;76.00;;;;;;10447094;28;20435;-69
2021/09/18 17:42:01;;;;;;;1.27;0.83;;;19.00;76.50;;;;;;10446081;28;20221;-69
2021/09/18 17:47:25;;;;;;;1.63;0.90;;;18.80;77.10;;;;;;10447825;28;20205;-69
2021/09/18 17:52:47;;;;;;;1.47;0.90;;;18.80;77.50;;;;;;10446884;28;20213;-69
2021/09/18 17:58:10;;;;;;;1.80;0.90;;;18.70;77.60;;;;;;10445527;28;20193;-71
2021/09/18 18:03:33;;;;;;;1.63;0.90;;;18.70;77.70;;;;;;10442388;28;20217;-70
2021/09/18 18:08:56;;;;;;;0.90;0.90;;;18.70;77.60;;;;;;10442751;28;20197;-71
2021/09/18 18:14:18;;;;;;;2.27;0.90;;;18.70;77.60;;;;;;10412760;28;20197;-70
2021/09/18 18:19:41;;;;;;;1.33;0.73;;;18.80;77.50;;;;;;10443258;28;20224;-72
2021/09/18 18:25:05;;;;;;;1.30;0.80;;;18.70;77.50;;;;;;10444579;28;20201;-72
2021/09/18 18:30:27;;;;;;;2.60;1.03;;;18.70;77.50;;;;;;10408457;28;20206;-72
2021/09/18 18:35:51;;;;;;;0.70;0.70;;;18.70;77.50;;;;;;10409298;28;20197;-72
2021/09/18 18:41:13;;;;;;;1.30;0.93;;;18.70;77.50;;;;;;10423517;28;20216;-72
2021/09/18 18:46:35;;;;;;;1.07;0.80;;;18.80;77.60;;;;;;10449167;28;20236;-71
2021/09/18 18:51:59;;;;;;;1.30;0.83;;;18.70;77.50;;;;;;10447838;28;20247;-71
2021/09/18 18:57:21;;;;;;;3.50;1.10;;;18.70;77.60;;;;;;10445682;28;20571;-70
2021/09/18 19:02:43;;;;;;;1.20;0.77;;;18.70;77.60;;;;;;10444305;28;20573;-69
2021/09/18 19:08:07;;;;;;;1.07;0.87;;;18.70;77.50;;;;;;10447455;28;20193;-69
2021/09/18 19:13:29;;;;;;;1.30;0.90;;;18.70;77.60;;;;;;10445424;28;20209;-69
2021/09/18 19:18:51;;;;;;;1.50;0.70;;;18.70;77.60;;;;;;10445222;28;20227;-69
2021/09/18 19:24:15;;;;;;;1.77;0.70;;;18.80;77.60;;;;;;10447882;28;20194;-69
2021/09/18 19:29:37;;;;;;;1.23;0.83;;;18.80;77.70;;;;;;10452134;28;20208;-70
2021/09/18 19:34:59;;;;;;;0.80;0.80;;;18.70;77.60;;;;;;10450560;28;20189;-70
2021/09/18 19:40:26;;;;;;;1.43;0.80;;;18.70;77.60;;;;;;10448197;28;20221;-69
2021/09/18 19:45:48;;;;;;;1.83;0.80;;;18.70;77.60;;;;;;10451495;28;20201;-70
2021/09/18 19:51:10;;;;;;;0.90;0.60;;;18.70;77.60;;;;;;10448970;28;20213;-70
2021/09/18 19:56:34;;;;;;;0.83;0.80;;;18.70;77.60;;;;;;10450183;28;20197;-70
2021/09/18 20:01:56;;;;;;;1.20;0.80;;;18.70;77.60;;;;;;10433007;28;20216;-70
2021/09/18 20:07:18;;;;;;;0.97;0.67;;;18.70;77.60;;;;;;10452566;28;20197;-70
2021/09/18 20:12:41;;;;;;;0.90;0.70;;;18.70;77.60;;;;;;10450568;28;20217;-69
2021/09/18 20:18:04;;;;;;;1.00;0.90;;;18.70;77.60;;;;;;10451366;28;20196;-70
2021/09/18 20:23:26;;;;;;;1.13;0.90;;;18.70;78.20;;;;;;10450603;28;20217;-70
2021/09/18 20:28:49;;;;;;;0.77;0.70;;;18.70;77.70;;;;;;10450560;28;20679;-70
2021/09/18 20:34:11;;;;;;;0.77;0.70;;;18.70;77.70;;;;;;10450850;28;20201;-69
2021/09/18 20:39:33;;;;;;;0.90;0.70;;;18.70;77.70;;;;;;10450167;28;20228;-71
2021/09/18 20:44:57;;;;;;;1.10;0.50;;;18.70;77.60;;;;;;10451524;28;20201;-70
2021/09/18 20:50:19;;;;;;;1.50;1.07;;;18.70;77.70;;;;;;10448480;28;20572;-70
2021/09/18 20:55:41;;;;;;;0.87;0.57;;;18.70;77.70;;;;;;10449421;28;20205;-69
2021/09/18 21:01:16;;;;;;;1.03;0.70;;;18.70;77.70;;;;;;10448917;28;20719;-70
2021/09/18 21:06:38;;;;;;;1.07;0.80;;;18.70;77.70;;;;;;10449681;28;20197;-70
2021/09/18 21:12:01;;;;;;;0.80;0.80;;;18.70;77.70;;;;;;10449243;28;20212;-69
2021/09/18 21:17:24;;;;;;;1.03;0.60;;;18.70;77.70;;;;;;10449329;28;20204;-69
2021/09/18 21:22:47;;;;;;;1.13;0.90;;;18.70;77.70;;;;;;10448163;28;20221;-69
2021/09/18 21:28:09;;;;;;;0.70;0.67;;;18.70;77.70;;;;;;10448784;28;20208;-69
2021/09/18 21:33:33;;;;;;;0.70;0.70;;;18.70;77.70;;;;;;10448033;28;20224;-70
2021/09/18 21:38:55;;;;;;;0.80;0.80;;;18.70;77.70;;;;;;10407823;28;20206;-69
2021/09/18 21:44:18;;;;;;;1.10;0.80;;;18.70;77.70;;;;;;10407853;28;20214;-69
2021/09/18 21:49:41;;;;;;;1.13;0.90;;;18.70;77.70;;;;;;10437145;28;20557;-69
2021/09/18 21:55:05;;;;;;;0.80;0.80;;;18.60;77.70;;;;;;10450001;28;20193;-70
2021/09/18 22:01:06;;;;;;;0.70;0.70;;;18.70;77.80;;;;;;10456127;28;20213;-70
2021/09/18 22:06:30;;;;;;;0.60;0.60;;;18.70;77.60;;;;;;10455941;28;20251;-70
2021/09/18 22:11:52;;;;;;;1.00;0.77;;;18.70;77.80;;;;;;10456031;28;20679;-70
2021/09/18 22:17:14;;;;;;;0.87;0.77;;;18.70;77.80;;;;;;10455734;28;20224;-69
2021/09/18 22:22:38;;;;;;;1.10;0.90;;;18.70;77.80;;;;;;10454900;28;20221;-70
2021/09/18 22:28:00;;;;;;;0.83;0.67;;;18.70;77.80;;;;;;10455850;28;20900;-69
2021/09/18 22:33:22;;;;;;;1.37;0.80;;;18.70;77.80;;;;;;10434796;28;20710;-70
2021/09/18 22:38:46;;;;;;;1.10;0.87;;;18.70;77.80;;;;;;10452952;28;20672;-69
2021/09/18 22:49:15;;;;;;;1.30;1.10;;;18.70;77.90;;;;;;10492547;28;20258;-66
2021/09/18 22:54:39;;;;;;;1.03;0.90;;;18.70;77.80;;;;;;10484196;28;20204;-67
2021/09/18 23:00:01;;;;;;;0.90;0.80;;;18.70;77.80;;;;;;10489155;28;20232;-66
2021/09/18 23:05:24;;;;;;;1.30;0.77;;;18.70;77.90;;;;;;10492241;28;20567;-66
2021/09/18 23:10:48;;;;;;;0.87;0.87;;;18.60;77.80;;;;;;10495504;28;20213;-66
2021/09/18 23:16:10;;;;;;;0.70;0.60;;;18.70;77.90;;;;;;10501266;28;20200;-67
2021/09/18 23:21:33;;;;;;;0.90;0.80;;;18.60;77.80;;;;;;10494714;28;20583;-66
2021/09/18 23:26:57;;;;;;;1.43;0.80;;;18.70;77.90;;;;;;10495573;28;20196;-67
2021/09/18 23:32:19;;;;;;;0.97;0.87;;;18.70;77.90;;;;;;10494371;28;20575;-66
2021/09/18 23:37:41;;;;;;;1.13;0.90;;;18.70;77.90;;;;;;10526459;28;20188;-66
2021/09/18 23:43:05;;;;;;;0.90;0.70;;;18.70;77.90;;;;;;10534454;28;20716;-66
2021/09/18 23:48:27;;;;;;;0.97;0.90;;;18.60;77.90;;;;;;10506530;28;20207;-66
2021/09/18 23:53:50;;;;;;;0.97;0.97;;;18.70;77.90;;;;;;10492314;28;20654;-67
2021/09/18 23:59:13;;;;;;;0.90;0.80;;;18.60;77.80;;;;;;10492940;28;20291;-66
